createdAt,value
2023-04-27T00:00:29.969Z,96438.84
2023-04-27T00:05:35.969Z,96436.38
2023-04-27T00:10:38.971Z,96435.31
2023-04-27T00:15:45.294Z,96433.13
2023-04-27T00:20:48.213Z,96435.00
2023-04-27T00:25:51.302Z,96431.47
2023-04-27T00:30:55.506Z,96432.56
2023-04-27T00:36:00.724Z,96422.84
2023-04-27T00:41:03.708Z,96423.94
2023-04-27T00:46:07.919Z,96423.94
2023-04-27T00:51:10.781Z,96416.06
2023-04-27T00:56:14.012Z,96416.34
2023-04-27T01:01:20.628Z,96407.41
2023-04-27T01:06:23.583Z,96407.69
2023-04-27T01:11:26.429Z,96409.56
2023-04-27T01:16:30.676Z,96405.25
2023-04-27T01:21:33.506Z,96407.16
2023-04-27T01:26:37.667Z,96409.03
2023-04-27T01:31:40.905Z,96424.19
2023-04-27T01:36:43.816Z,96425.28
2023-04-27T01:41:48.001Z,96430.97
2023-04-27T01:46:50.977Z,96423.94
2023-04-27T01:51:54.036Z,96423.94
2023-04-27T01:56:59.231Z,96418.53
2023-04-27T02:02:02.272Z,96416.38
2023-04-27T02:07:05.164Z,96428.25
2023-04-27T02:12:11.688Z,96422.31
2023-04-27T02:17:14.618Z,96430.44
2023-04-27T02:22:17.466Z,96424.22
2023-04-27T02:27:21.602Z,96421.53
2023-04-27T02:32:24.914Z,96428.81
2023-04-27T02:37:27.840Z,96438.03
2023-04-27T02:42:32.233Z,96442.63
2023-04-27T02:47:35.305Z,96442.88
2023-04-27T02:52:38.201Z,96441.28
2023-04-27T02:57:42.426Z,96444.25
2023-04-27T03:02:45.367Z,96446.16
2023-04-27T03:07:48.284Z,96450.47
2023-04-27T03:12:52.469Z,96449.94
2023-04-27T03:17:55.507Z,96438.28
2023-04-27T03:22:58.336Z,96449.13
2023-04-27T03:28:02.464Z,96436.69
2023-04-27T03:33:05.391Z,96443.19
2023-04-27T03:38:08.246Z,96441.56
2023-04-27T03:43:12.427Z,96438.84
2023-04-27T03:48:16.322Z,96439.91
2023-04-27T03:53:19.630Z,96448.84
2023-04-27T03:58:23.821Z,96449.94
2023-04-27T04:03:26.793Z,96438.28
2023-04-27T04:08:29.734Z,96445.63
2023-04-27T04:13:33.945Z,96443.19
2023-04-27T04:18:37.675Z,96442.09
2023-04-27T04:23:41.635Z,96449.41
2023-04-27T04:28:45.986Z,96452.13
2023-04-27T04:33:48.828Z,96449.38
2023-04-27T04:38:51.682Z,96450.22
2023-04-27T04:43:56.023Z,96458.59
2023-04-27T04:48:58.848Z,96454.81
2023-04-27T04:54:02.373Z,96459.13
2023-04-27T04:59:06.630Z,96458.06
2023-04-27T05:04:09.667Z,96458.06
2023-04-27T05:09:12.706Z,96455.06
2023-04-27T05:14:20.424Z,96469.97
2023-04-27T05:19:23.296Z,96463.50
2023-04-27T05:24:26.278Z,96460.78
2023-04-27T05:29:30.492Z,96461.56
2023-04-27T05:34:33.409Z,96461.31
2023-04-27T05:39:36.410Z,96469.97
2023-04-27T05:44:40.689Z,96469.97
2023-04-27T05:49:43.590Z,96467.81
2023-04-27T05:54:48.018Z,96463.19
2023-04-27T05:59:52.592Z,96478.91
2023-04-27T06:04:56.011Z,96483.75
2023-04-27T06:09:58.888Z,96488.38
2023-04-27T06:15:07.984Z,96493.78
2023-04-27T06:20:11.954Z,96499.75
2023-04-27T06:25:14.775Z,96498.66
2023-04-27T06:30:19.071Z,96491.09
2023-04-27T06:35:22.690Z,96501.63
2023-04-27T06:40:26.883Z,96490.78
2023-04-27T06:45:31.082Z,96509.22
2023-04-27T06:50:33.866Z,96517.09
2023-04-27T06:55:37.019Z,96502.97
2023-04-27T07:00:41.294Z,96515.72
2023-04-27T07:05:44.192Z,96511.94
2023-04-27T07:10:47.031Z,96511.41
2023-04-27T07:15:58.211Z,96508.97
2023-04-27T07:21:01.135Z,96505.19
2023-04-27T07:26:04.045Z,96502.16
2023-04-27T07:31:08.404Z,96496.44
2023-04-27T07:36:11.619Z,96501.59
2023-04-27T07:41:14.550Z,96497.75
2023-04-27T07:46:19.227Z,96508.09
2023-04-27T07:51:22.166Z,96503.72
2023-04-27T08:00:48.720Z,96483.91
2023-04-27T08:10:43.928Z,96478.16
2023-04-27T08:15:46.732Z,96481.88
2023-04-27T08:20:49.512Z,96487.38
2023-04-27T08:25:53.686Z,96479.50
2023-04-27T08:30:56.604Z,96477.59
2023-04-27T08:35:59.450Z,96498.72
2023-04-27T08:41:14.527Z,96478.13
2023-04-27T08:46:25.268Z,96474.56
2023-04-27T08:51:28.936Z,96475.91
2023-04-27T08:56:33.079Z,96481.09
2023-04-27T09:01:35.931Z,96478.16
2023-04-27T09:06:38.798Z,96482.19
2023-04-27T09:11:42.970Z,96478.13
2023-04-27T09:16:46.414Z,96470.53
2023-04-27T09:21:50.826Z,96460.38
2023-04-27T09:26:55.014Z,96446.75
2023-04-27T09:31:57.897Z,96455.34
2023-04-27T09:37:00.804Z,96454.38
2023-04-27T09:42:05.479Z,96456.63
2023-04-27T09:47:08.550Z,96457.00
2023-04-27T09:52:12.245Z,96460.84
2023-04-27T09:57:24.521Z,96461.63
2023-04-27T10:02:27.976Z,96452.16
2023-04-27T10:07:33.232Z,96442.94
2023-04-27T10:12:37.868Z,96442.50
2023-04-27T10:17:40.923Z,96430.06
2023-04-27T10:22:46.185Z,96432.47
2023-04-27T10:27:54.788Z,96422.69
2023-04-27T10:32:58.732Z,96417.22
2023-04-27T10:38:07.269Z,96419.84
2023-04-27T10:43:12.324Z,96412.75
2023-04-27T10:48:16.128Z,96407.56
2023-04-27T10:53:19.027Z,96410.06
2023-04-27T10:58:28.132Z,96408.38
2023-04-27T11:03:40.167Z,96404.31
2023-04-27T11:08:45.324Z,96396.09
2023-04-27T11:13:52.770Z,96399.78
2023-04-27T11:18:56.591Z,96388.59
2023-04-27T11:24:04.987Z,96387.44
2023-04-27T11:29:12.381Z,96383.34
2023-04-27T11:34:19.753Z,96382.97
2023-04-27T11:39:23.854Z,96387.63
2023-04-27T11:44:28.603Z,96393.28
2023-04-27T11:49:31.570Z,96375.28
2023-04-27T11:54:34.465Z,96366.25
2023-04-27T11:59:38.647Z,96378.75
2023-04-27T12:04:42.327Z,96375.69
2023-04-27T12:09:45.596Z,96375.31
2023-04-27T12:14:49.958Z,96370.09
2023-04-27T12:19:52.834Z,96371.97
2023-04-27T12:24:56.050Z,96369.41
2023-04-27T12:30:00.543Z,96369.47
2023-04-27T12:35:03.522Z,96360.88
2023-04-27T12:40:08.957Z,96367.69
2023-04-27T12:45:13.819Z,96370.53
2023-04-27T12:50:16.705Z,96371.97
2023-04-27T12:55:32.118Z,96364.94
2023-04-27T13:00:38.561Z,96360.41
2023-04-27T13:05:41.944Z,96357.22
2023-04-27T13:10:45.284Z,96354.69
2023-04-27T13:15:49.509Z,96352.00
2023-04-27T13:20:52.482Z,96357.72
2023-04-27T13:25:55.345Z,96347.91
2023-04-27T13:31:00.506Z,96345.16
2023-04-27T13:36:03.918Z,96344.25
2023-04-27T13:41:07.353Z,96344.47
2023-04-27T13:46:11.732Z,96337.03
2023-04-27T13:51:14.654Z,96337.41
2023-04-27T13:56:17.494Z,96333.53
2023-04-27T14:01:22.346Z,96335.75
2023-04-27T14:06:25.265Z,96333.19
2023-04-27T14:11:28.123Z,96323.47
2023-04-27T14:16:32.327Z,96323.47
2023-04-27T14:21:35.508Z,96322.69
2023-04-27T14:26:38.719Z,96316.69
2023-04-27T14:31:43.051Z,96320.59
2023-04-27T14:36:45.965Z,96316.09
2023-04-27T14:41:48.801Z,96312.50
2023-04-27T14:46:53.029Z,96317.28
2023-04-27T14:51:55.902Z,96316.81
2023-04-27T14:56:59.049Z,96320.16
2023-04-27T15:02:03.707Z,96326.34
2023-04-27T15:07:06.984Z,96316.56
2023-04-27T15:12:11.178Z,96314.16
2023-04-27T15:17:16.194Z,96315.13
2023-04-27T15:22:19.034Z,96312.50
2023-04-27T15:27:22.107Z,96297.38
2023-04-27T15:32:30.086Z,96292.91
2023-04-27T15:37:35.644Z,96301.97
2023-04-27T15:42:38.854Z,96308.34
2023-04-27T15:47:43.094Z,96306.84
2023-04-27T15:52:46.146Z,96302.91
2023-04-27T15:57:49.059Z,96303.31
2023-04-27T16:02:53.577Z,96291.66
2023-04-27T16:07:56.670Z,96292.78
2023-04-27T16:13:03.114Z,96290.63
2023-04-27T16:18:08.354Z,96288.31
2023-04-27T16:23:11.256Z,96286.94
2023-04-27T16:28:14.043Z,96279.63
2023-04-27T16:38:20.493Z,96281.66
2023-04-27T16:43:23.744Z,96284.78
2023-04-27T16:48:27.372Z,96279.63
2023-04-27T16:53:31.497Z,96278.38
2023-04-27T16:58:35.992Z,96279.78
2023-04-27T17:03:39.000Z,96288.44
2023-04-27T17:08:43.221Z,96300.28
2023-04-27T17:13:46.743Z,96294.69
2023-04-27T17:18:49.569Z,96299.91
2023-04-27T17:23:53.802Z,96302.66
2023-04-27T17:28:59.969Z,96291.28
2023-04-27T17:34:03.696Z,96290.31
2023-04-27T17:39:08.075Z,96296.88
2023-04-27T17:44:12.488Z,96285.97
2023-04-27T17:49:16.827Z,96292.25
2023-04-27T17:54:21.521Z,96294.03
2023-04-27T17:59:24.763Z,96296.19
2023-04-27T18:04:27.815Z,96298.78
2023-04-27T18:09:33.068Z,96302.31
2023-04-27T18:14:36.037Z,96309.34
2023-04-27T18:19:38.811Z,96316.19
2023-04-27T18:24:43.564Z,96316.63
2023-04-27T18:29:46.423Z,96302.97
2023-04-27T18:34:49.789Z,96302.34
2023-04-27T18:39:53.974Z,96313.41
2023-04-27T18:45:00.488Z,96315.69
2023-04-27T18:50:04.166Z,96317.97
2023-04-27T18:55:10.098Z,96326.31
2023-04-27T19:00:14.050Z,96334.78
2023-04-27T19:05:17.017Z,96331.31
2023-04-27T19:10:21.499Z,96334.94
2023-04-27T19:15:24.567Z,96342.38
2023-04-27T19:20:27.404Z,96336.47
2023-04-27T19:25:32.313Z,96346.59
2023-04-27T19:30:35.753Z,96366.81
2023-04-27T19:35:38.553Z,96360.31
2023-04-27T19:40:42.726Z,96364.44
2023-04-27T19:45:45.603Z,96358.50
2023-04-27T19:50:48.423Z,96370.53
2023-04-27T19:55:52.910Z,96377.34
2023-04-27T20:00:56.036Z,96379.84
2023-04-27T20:06:00.451Z,96374.19
2023-04-27T20:11:04.757Z,96381.28
2023-04-27T20:16:09.723Z,96383.47
2023-04-27T20:21:12.699Z,96375.88
2023-04-27T20:26:17.627Z,96380.81
2023-04-27T20:31:21.859Z,96382.19
2023-04-27T20:36:25.730Z,96383.56
2023-04-27T20:41:30.432Z,96378.69
2023-04-27T20:46:33.270Z,96374.97
2023-04-27T20:51:36.759Z,96376.06
2023-04-27T20:56:40.892Z,96377.44
2023-04-27T21:01:43.933Z,96381.22
2023-04-27T21:06:46.891Z,96372.06
2023-04-27T21:11:51.091Z,96380.22
2023-04-27T21:16:54.064Z,96370.72
2023-04-27T21:21:57.166Z,96381.59
2023-04-27T21:27:03.734Z,96374.00
2023-04-27T21:32:06.799Z,96371.28
2023-04-27T21:37:09.658Z,96373.25
2023-04-27T21:42:14.045Z,96370.25
2023-04-27T21:47:17.853Z,96369.44
2023-04-27T21:52:21.497Z,96367.00
2023-04-27T21:57:25.938Z,96365.41
2023-04-27T22:02:29.450Z,96373.59
2023-04-27T22:07:32.506Z,96359.22
2023-04-27T22:12:36.722Z,96364.94
2023-04-27T22:17:40.577Z,96358.94
2023-04-27T22:22:43.451Z,96355.16
2023-04-27T22:27:47.642Z,96355.44
2023-04-27T22:32:50.992Z,96350.56
2023-04-27T22:37:54.981Z,96356.00
2023-04-27T22:42:59.122Z,96367.19
2023-04-27T22:48:02.021Z,96371.78
2023-04-27T22:53:04.919Z,96372.88
2023-04-27T22:58:09.125Z,96372.88
2023-04-27T23:03:12.166Z,96363.41
2023-04-27T23:08:16.869Z,96369.09
2023-04-27T23:13:21.190Z,96366.69
2023-04-27T23:18:24.014Z,96371.81
2023-04-27T23:23:26.873Z,96375.63
2023-04-27T23:28:31.124Z,96381.34
2023-04-27T23:33:34.441Z,96377.03
2023-04-27T23:38:37.269Z,96380.00
2023-04-27T23:43:41.598Z,96378.41
2023-04-27T23:48:44.397Z,96369.44
2023-04-27T23:53:47.195Z,96385.22
2023-04-27T23:58:51.524Z,96375.44
